Time;durP1;ratioP1;P1;durP2;ratioP2;P2;SDS_P1;SDS_P2;PMS_P1;PMS_P2;Temp;Humidity;BMP_temperature;BMP_pressure;BME280_temperature;BME280_humidity;BME280_pressure;Samples;Min_cycle;Max_cycle;Signal;HPM_P1;HPM_P2
2022/05/23 00:01:04;;;;;;;9.13;5.07;;;;;;;26.72;43.26;100558.84;4990539;28;20480;-84
2022/05/23 00:03:32;;;;;;;7.70;4.70;;;;;;;26.43;43.84;100538.97;4990067;28;20081;-84
2022/05/23 00:05:59;;;;;;;8.10;4.30;;;;;;;26.20;43.70;100502.63;4990222;28;20460;-84
2022/05/23 00:08:28;;;;;;;6.18;4.60;;;;;;;26.19;43.95;100494.69;4990327;28;20073;-83
2022/05/23 00:10:54;;;;;;;7.97;4.78;;;;;;;26.55;43.62;100542.47;4990888;28;20058;-84
2022/05/23 00:13:21;;;;;;;10.27;4.93;;;;;;;26.43;43.56;100523.47;5008128;28;20476;-84
2022/05/23 00:15:47;;;;;;;5.18;4.05;;;;;;;26.50;43.15;100512.41;5008560;28;20056;-83
2022/05/23 00:18:14;;;;;;;7.45;4.40;;;;;;;26.31;43.13;100502.81;5008054;28;20397;-83
2022/05/23 00:20:41;;;;;;;8.82;4.28;;;;;;;26.54;43.05;100529.97;4990489;28;20136;-82
2022/05/23 00:23:08;;;;;;;8.18;4.25;;;;;;;26.46;42.69;100500.38;4990527;28;20050;-84
2022/05/23 00:25:35;;;;;;;13.55;4.68;;;;;;;26.33;43.04;100503.38;4989464;28;20412;-83
2022/05/23 00:28:01;;;;;;;13.32;5.22;;;;;;;26.31;42.98;100500.09;4989380;28;20050;-85
2022/05/23 00:30:28;;;;;;;6.22;4.43;;;;;;;25.85;43.04;100423.00;4989853;28;20088;-85
2022/05/23 00:35:50;;;;;;;8.52;4.80;;;;;;;26.03;43.59;100490.84;5007419;28;20128;-83
2022/05/23 00:38:17;;;;;;;7.10;4.75;;;;;;;26.07;43.61;100481.16;4990009;28;20077;-84
2022/05/23 00:43:13;;;;;;;5.50;3.80;;;;;;;26.23;43.24;100507.56;4990148;28;20058;-84
2022/05/23 00:43:42;;;;;;;10.07;3.90;;;;;;;25.79;43.64;100452.00;5007487;28;20443;-84
2022/05/23 00:46:11;;;;;;;11.13;4.30;;;;;;;25.88;43.09;100444.31;5007878;28;20092;-84
2022/05/23 00:48:38;;;;;;;8.07;3.90;;;;;;;26.00;43.32;100469.59;4992954;28;20049;-84
2022/05/23 00:51:12;;;;;;;5.97;4.72;;;;;;;25.98;43.40;100472.53;4992107;28;20089;-84
2022/05/23 00:53:46;;;;;;;8.15;4.25;;;;;;;25.70;43.29;100432.50;4990255;28;20058;-84
2022/05/23 00:56:15;;;;;;;7.65;4.55;;;;;;;26.04;43.37;100483.50;5007477;28;20324;-83
2022/05/23 00:59:02;;;;;;;4.93;4.13;;;;;;;26.20;43.34;100513.50;5006980;28;20054;-84
2022/05/23 01:01:34;;;;;;;5.20;4.68;;;;;;;24.70;43.45;100276.06;4989699;28;20081;-83
2022/05/23 01:04:02;;;;;;;7.50;4.82;;;;;;;25.41;43.89;100406.34;4989884;28;20057;-84
2022/05/23 01:06:29;;;;;;;8.70;4.90;;;;;;;25.80;44.09;100476.22;5007795;28;20061;-83
2022/05/23 01:08:55;;;;;;;5.13;3.78;;;;;;;25.59;43.63;100430.66;4998048;28;20053;-84
2022/05/23 01:11:23;;;;;;;7.63;4.93;;;;;;;25.54;44.04;100425.13;4993939;28;20301;-84
2022/05/23 01:13:53;;;;;;;12.82;4.88;;;;;;;26.14;43.77;100519.91;4989590;28;20642;-84
2022/05/23 01:16:21;;;;;;;7.13;4.72;;;;;;;25.97;44.04;100502.69;5007704;28;20042;-84
2022/05/23 01:18:48;;;;;;;5.75;4.20;;;;;;;25.96;43.97;100499.13;4989808;28;20064;-85
2022/05/23 01:21:29;;;;;;;5.88;3.78;;;;;;;25.98;44.20;100517.94;5007727;28;20046;-83
2022/05/23 01:24:01;;;;;;;5.72;4.22;;;;;;;26.08;43.83;100520.06;4990046;28;20451;-82
2022/05/23 01:26:31;;;;;;;6.18;4.13;;;;;;;26.00;44.23;100518.53;4989445;28;20502;-83
2022/05/23 01:28:58;;;;;;;8.48;4.55;;;;;;;25.86;44.60;100512.53;4989559;28;20119;-83
2022/05/23 01:31:25;;;;;;;5.25;4.13;;;;;;;25.72;44.28;100484.75;4989590;28;20351;-83
2022/05/23 01:33:52;;;;;;;7.28;4.63;;;;;;;25.88;44.12;100520.47;4990056;28;20128;-84
2022/05/23 01:36:18;;;;;;;6.93;4.57;;;;;;;25.43;44.16;100450.41;4989587;28;20073;-83
2022/05/23 01:38:45;;;;;;;5.15;4.50;;;;;;;25.82;44.44;100505.06;4989347;28;20042;-83
2022/05/23 01:41:12;;;;;;;7.35;5.00;;;;;;;25.43;44.16;100436.81;4989295;28;20381;-83
2022/05/23 01:43:39;;;;;;;8.73;4.85;;;;;;;25.87;43.88;100483.44;5006947;28;20561;-83
2022/05/23 01:46:05;;;;;;;9.20;5.07;;;;;;;25.80;43.71;100481.66;5007190;28;20120;-85
2022/05/23 01:48:32;;;;;;;8.65;5.68;;;;;;;25.92;43.88;100499.84;5007303;28;20076;-84
2022/05/23 01:50:58;;;;;;;6.47;4.65;;;;;;;25.92;43.48;100494.41;4989516;28;20046;-84
2022/05/23 01:53:26;;;;;;;5.60;4.43;;;;;;;25.87;43.79;100495.13;4989744;28;20112;-84
2022/05/23 01:55:53;;;;;;;6.22;4.53;;;;;;;25.21;43.84;100402.13;4989924;28;20054;-84
2022/05/23 02:01:13;;;;;;;6.47;4.85;;;;;;;25.58;43.82;100480.63;5006673;28;20042;-85
2022/05/23 02:01:15;;;;;;;6.47;5.40;;;;;;;25.61;44.31;100501.91;5006364;28;20492;-84
2022/05/23 02:03:44;;;;;;;4.80;4.20;;;;;;;25.62;45.27;100522.59;4968160;28;20062;-84
2022/05/23 02:06:11;;;;;;;10.32;5.30;;;;;;;24.98;45.51;100445.53;4966477;28;20047;-84
2022/05/23 02:08:38;;;;;;;6.65;4.75;;;;;;;25.40;45.32;100494.38;4966311;28;20047;-84
2022/05/23 02:11:06;;;;;;;9.10;4.85;;;;;;;24.26;45.14;100318.97;4966159;28;20528;-84
2022/05/23 02:13:35;;;;;;;7.68;5.03;;;;;;;25.46;44.13;100498.84;4967244;28;20054;-83
2022/05/23 02:16:03;;;;;;;6.03;4.88;;;;;;;25.33;44.71;100487.16;4966114;28;20055;-84
2022/05/23 02:18:30;;;;;;;8.23;5.38;;;;;;;25.23;45.79;100503.22;4965974;28;20065;-84
2022/05/23 02:20:57;;;;;;;9.32;4.68;;;;;;;25.18;47.18;100522.13;4966208;28;20141;-83
2022/05/23 02:23:24;;;;;;;8.25;5.28;;;;;;;24.55;47.28;100446.69;4970636;28;20070;-84
2022/05/23 02:25:51;;;;;;;7.22;4.63;;;;;;;24.78;47.24;100479.28;4971126;28;20082;-83
2022/05/23 02:28:19;;;;;;;8.40;4.88;;;;;;;24.90;47.71;100499.16;4970169;28;20574;-84
2022/05/23 02:30:47;;;;;;;8.27;5.20;;;;;;;24.80;46.78;100482.59;4969965;28;20670;-84
2022/05/23 02:33:15;;;;;;;8.60;4.90;;;;;;;25.12;45.65;100506.72;4970306;28;20050;-83
2022/05/23 02:35:42;;;;;;;11.10;4.28;;;;;;;25.02;44.84;100463.84;4971186;28;20054;-84
2022/05/23 02:38:09;;;;;;;8.25;4.53;;;;;;;25.05;44.02;100457.97;4969424;28;20266;-84
2022/05/23 02:40:35;;;;;;;7.15;4.60;;;;;;;25.29;43.46;100504.16;4970592;28;20082;-85
2022/05/23 02:43:02;;;;;;;8.32;4.20;;;;;;;25.19;43.74;100491.16;4969453;28;20039;-82
2022/05/23 02:45:29;;;;;;;6.32;4.68;;;;;;;24.83;44.75;100441.41;4970495;28;20583;-85
2022/05/23 02:47:55;;;;;;;7.78;4.70;;;;;;;25.12;44.71;100490.41;4970091;28;20109;-83
2022/05/23 02:50:22;;;;;;;7.20;5.20;;;;;;;25.09;44.41;100477.31;4973768;28;20138;-84
2022/05/23 02:52:48;;;;;;;5.57;4.43;;;;;;;25.00;44.70;100470.56;4971495;28;20126;-84
2022/05/23 02:55:15;;;;;;;5.80;4.13;;;;;;;24.97;44.32;100479.19;4971097;28;20179;-84
2022/05/23 02:57:42;;;;;;;5.43;4.78;;;;;;;24.53;43.99;100393.44;4969153;28;20101;-84
2022/05/23 03:00:10;;;;;;;6.90;4.82;;;;;;;25.00;43.42;100465.13;4969932;28;20054;-83
2022/05/23 03:05:22;;;;;;;7.47;4.10;;;;;;;25.02;42.87;100473.88;5009315;28;20053;-84
2022/05/23 03:07:49;;;;;;;5.30;3.90;;;;;;;24.74;42.38;100424.63;4991683;28;20089;-84
2022/05/23 03:10:15;;;;;;;5.95;4.03;;;;;;;24.62;42.77;100412.94;4991956;28;20086;-84
2022/05/23 03:12:42;;;;;;;6.47;4.32;;;;;;;24.99;43.09;100485.22;4991843;28;20049;-84
2022/05/23 03:15:10;;;;;;;7.88;3.83;;;;;;;25.02;42.60;100499.16;5008908;28;20082;-84
2022/05/23 03:17:37;;;;;;;9.05;4.18;;;;;;;24.74;42.17;100456.38;4991959;28;20451;-83
2022/05/23 03:20:04;;;;;;;4.68;3.50;;;;;;;25.01;42.40;100505.66;5009440;28;20137;-84
2022/05/23 03:28:02;;;;;;;5.13;3.95;;;;;;;25.00;42.00;100519.44;5011122;28;20053;-84
2022/05/23 03:30:29;;;;;;;7.03;4.35;;;;;;;24.83;42.16;100498.44;4991860;28;20062;-83
2022/05/23 03:32:57;;;;;;;8.05;4.55;;;;;;;24.64;42.58;100461.56;5008503;28;20414;-84
2022/05/23 03:35:26;;;;;;;5.72;4.72;;;;;;;24.88;43.38;100500.41;5008617;28;20307;-84
2022/05/23 03:37:53;;;;;;;5.88;4.22;;;;;;;24.88;44.08;100512.13;5008467;28;20050;-82
2022/05/23 03:40:19;;;;;;;4.35;3.95;;;;;;;24.39;44.29;100443.53;4991239;28;20053;-83
2022/05/23 03:42:46;;;;;;;6.00;4.43;;;;;;;24.78;45.01;100511.84;5008327;28;20557;-84
2022/05/23 03:45:13;;;;;;;5.72;4.88;;;;;;;24.57;45.15;100485.28;4991240;28;20049;-84
2022/05/23 03:47:39;;;;;;;6.75;4.60;;;;;;;24.46;45.47;100474.13;5008633;28;20438;-84
2022/05/23 03:50:06;;;;;;;6.10;4.13;;;;;;;24.62;45.68;100502.50;4990918;28;20053;-83
2022/05/23 03:52:33;;;;;;;5.63;5.07;;;;;;;23.97;45.81;100397.41;4990974;28;20077;-83
2022/05/23 03:55:00;;;;;;;12.30;5.15;;;;;;;24.47;46.28;100483.94;4990958;28;20100;-84
2022/05/23 03:57:27;;;;;;;7.00;5.15;;;;;;;24.06;46.57;100423.13;4991163;28;20053;-83
2022/05/23 03:59:54;;;;;;;8.43;5.43;;;;;;;24.49;46.96;100500.81;5008511;28;20068;-84
2022/05/23 04:02:21;;;;;;;5.47;4.85;;;;;;;24.52;47.31;100511.19;4991406;28;20053;-84
2022/05/23 04:04:47;;;;;;;5.65;5.10;;;;;;;24.51;47.87;100512.25;5010697;28;20058;-83
2022/05/23 04:07:14;;;;;;;6.00;5.07;;;;;;;23.97;48.11;100427.22;4992696;28;20050;-83
2022/05/23 04:09:40;;;;;;;7.28;4.97;;;;;;;24.61;47.73;100527.16;4993536;28;20073;-83
2022/05/23 04:12:07;;;;;;;8.10;5.57;;;;;;;24.49;48.01;100519.81;5010690;28;20057;-84
2022/05/23 04:14:34;;;;;;;8.90;5.28;;;;;;;24.46;48.66;100508.56;5015578;28;20557;-83
2022/05/23 04:17:01;;;;;;;5.50;5.00;;;;;;;24.03;48.11;100448.00;5017845;28;20054;-82
2022/05/23 04:19:28;;;;;;;7.00;5.32;;;;;;;24.15;47.41;100447.22;5028801;28;20034;-85
2022/05/23 04:21:54;;;;;;;5.75;5.20;;;;;;;24.72;47.07;100508.19;5016145;28;20034;-85
2022/05/23 04:24:21;;;;;;;8.43;5.18;;;;;;;24.55;47.12;100484.66;4998496;28;20046;-84
2022/05/23 04:26:52;;;;;;;7.82;5.55;;;;;;;24.62;48.49;100502.50;4990481;28;20053;-84
2022/05/23 04:29:19;;;;;;;10.52;5.30;;;;;;;24.37;48.92;100480.06;4990892;28;20050;-84
2022/05/23 04:31:46;;;;;;;4.97;4.47;;;;;;;24.45;49.26;100501.47;4990348;28;20041;-83
2022/05/23 04:37:05;;;;;;;8.00;5.45;;;;;;;24.35;49.88;100498.50;5009047;28;20476;-83
2022/05/23 04:39:32;;;;;;;10.35;5.13;;;;;;;24.19;50.07;100465.50;4990351;28;20119;-83
2022/05/23 04:42:00;;;;;;;9.57;5.60;;;;;;;24.39;50.18;100503.19;4990906;28;20057;-83
2022/05/23 04:44:27;;;;;;;10.32;5.70;;;;;;;24.48;50.56;100507.28;5007572;28;20042;-83
2022/05/23 04:49:42;;;;;;;12.90;5.35;;;;;;;24.10;50.84;100443.31;5008968;28;20058;-82
2022/05/23 04:52:14;;;;;;;9.10;5.93;;;;;;;24.63;50.55;100525.84;5007104;28;20276;-83
2022/05/23 04:54:42;;;;;;;9.00;5.75;;;;;;;24.08;50.71;100429.16;5007691;28;20472;-83
2022/05/23 04:57:11;;;;;;;6.82;5.32;;;;;;;24.66;51.01;100521.84;5008223;28;20064;-84
2022/05/23 04:59:38;;;;;;;9.38;5.07;;;;;;;24.47;51.02;100481.22;4989773;28;20046;-82
2022/05/23 05:02:06;;;;;;;10.13;6.88;;;;;;;24.68;50.76;100519.75;4989175;28;20487;-84
2022/05/23 05:04:33;;;;;;;7.22;6.03;;;;;;;24.14;50.33;100418.44;5006516;28;20050;-83
2022/05/23 05:06:59;;;;;;;11.25;6.00;;;;;;;24.73;50.38;100507.16;4988876;28;20050;-84
2022/05/23 05:09:26;;;;;;;6.93;6.18;;;;;;;24.73;50.58;100504.44;4988255;28;20400;-84
2022/05/23 05:11:53;;;;;;;8.73;5.93;;;;;;;24.28;50.36;100419.91;5005759;28;20054;-82
2022/05/23 05:14:19;;;;;;;10.73;6.00;;;;;;;24.75;50.02;100479.75;5005929;28;20068;-83
2022/05/23 05:16:46;;;;;;;6.90;5.93;;;;;;;24.74;49.63;100467.25;4988153;28;20046;-83
2022/05/23 05:19:13;;;;;;;6.90;4.97;;;;;;;24.80;49.12;100482.59;4988105;28;20085;-83
2022/05/23 05:21:40;;;;;;;7.82;5.65;;;;;;;24.88;49.53;100476.84;4988464;28;20061;-83
2022/05/23 05:24:13;;;;;;;12.43;5.40;;;;;;;25.14;48.58;100493.72;4991268;28;20054;-81
2022/05/23 05:26:40;;;;;;;6.13;5.03;;;;;;;24.95;46.52;100458.53;4991131;28;20080;-83
2022/05/23 05:29:06;;;;;;;10.55;4.78;;;;;;;25.25;45.35;100482.09;4989980;28;20081;-83
2022/05/23 05:32:01;;;;;;;6.85;4.13;;;;;;;25.31;44.21;100504.75;4990484;28;20565;-83
2022/05/23 05:34:40;;;;;;;10.80;5.20;;;;;;;24.94;44.54;100466.91;4998137;28;20492;-83
2022/05/23 05:37:12;;;;;;;9.90;5.70;;;;;;;25.22;45.81;100517.88;4990505;28;20042;-84
2022/05/23 05:39:40;;;;;;;7.43;5.70;;;;;;;25.27;45.54;100507.13;4991450;28;20053;-83
2022/05/23 05:42:13;;;;;;;7.72;4.85;;;;;;;25.34;45.25;100526.84;5007748;28;20153;-83
2022/05/23 05:44:45;;;;;;;9.32;5.03;;;;;;;25.37;45.69;100514.69;4990526;28;20108;-83
2022/05/23 05:47:15;;;;;;;7.32;5.65;;;;;;;25.07;45.56;100449.56;5007901;28;20748;-83
2022/05/23 05:50:00;;;;;;;10.18;6.00;;;;;;;24.89;46.14;100432.31;4991870;28;20373;-83
2022/05/23 05:52:31;;;;;;;7.75;6.18;;;;;;;25.35;46.80;100495.91;4990190;28;20404;-82
2022/05/23 05:54:59;;;;;;;9.38;6.28;;;;;;;25.43;47.44;100510.19;4989547;28;20092;-82
2022/05/23 05:57:27;;;;;;;9.68;7.50;;;;;;;25.19;47.96;100469.44;4993490;28;20045;-83
2022/05/23 05:59:56;;;;;;;11.40;7.25;;;;;;;24.86;49.36;100421.13;4994808;28;20054;-84
2022/05/23 06:02:23;;;;;;;11.48;9.10;;;;;;;24.90;49.98;100461.16;4981140;28;20055;-83
2022/05/23 06:04:50;;;;;;;11.05;8.32;;;;;;;24.90;49.94;100444.84;4972742;28;20055;-82
2022/05/23 06:13:03;;;;;;;;;;;;;;;25.19;51.81;100522.94;4973078;28;20058;-82
2022/05/23 06:15:30;;;;;;;10.65;7.65;;;;;;;25.14;51.18;100512.75;4973390;28;19985;-83
2022/05/23 06:17:57;;;;;;;8.30;7.50;;;;;;;25.27;51.42;100515.28;4971158;28;20047;-82
2022/05/23 06:20:23;;;;;;;18.08;8.35;;;;;;;25.24;51.67;100520.34;4970434;28;20046;-82
2022/05/23 06:22:51;;;;;;;13.70;8.32;;;;;;;25.17;51.71;100509.56;4970443;28;20162;-83
2022/05/23 06:25:17;;;;;;;9.70;7.82;;;;;;;25.13;52.31;100502.94;4971304;28;20567;-83
2022/05/23 06:27:44;;;;;;;10.45;8.13;;;;;;;24.89;51.94;100445.06;4971180;28;20107;-84
2022/05/23 06:30:15;;;;;;;10.43;7.55;;;;;;;25.40;52.08;100516.09;4971171;28;20043;-82
2022/05/23 06:32:41;;;;;;;10.52;7.97;;;;;;;25.15;52.15;100473.66;4972568;28;20109;-82
2022/05/23 06:35:09;;;;;;;12.55;8.25;;;;;;;25.40;51.99;100506.06;4971178;28;20485;-84
2022/05/23 06:37:38;;;;;;;11.45;8.77;;;;;;;25.29;52.17;100483.28;4970205;28;20445;-81
2022/05/23 06:40:07;;;;;;;11.30;8.32;;;;;;;25.44;52.24;100500.97;4969932;28;20101;-82
2022/05/23 06:42:35;;;;;;;19.55;8.50;;;;;;;25.58;51.91;100499.66;4971262;28;20073;-82
2022/05/23 06:45:03;;;;;;;13.80;9.02;;;;;;;25.72;51.49;100520.09;4950412;28;20051;-82
2022/05/23 06:47:30;;;;;;;12.25;8.57;;;;;;;25.50;51.17;100470.13;4950530;29;20122;-82
2022/05/23 06:49:57;;;;;;;12.05;8.52;;;;;;;25.64;51.81;100504.16;4950829;29;20551;-82
2022/05/23 06:52:24;;;;;;;13.32;7.80;;;;;;;25.36;51.73;100448.63;4957592;28;20054;-83
2022/05/23 06:54:51;;;;;;;11.32;8.70;;;;;;;25.68;51.92;100499.91;4970105;28;20084;-82
2022/05/23 06:57:18;;;;;;;17.60;8.82;;;;;;;25.62;51.73;100484.53;4967780;28;20066;-83
2022/05/23 06:59:45;;;;;;;14.63;8.25;;;;;;;25.63;51.46;100477.19;4967963;28;20189;-82
2022/05/23 07:02:14;;;;;;;12.30;8.30;;;;;;;25.73;51.66;100497.28;4984719;28;20559;-82
2022/05/23 07:12:59;;;;;;;15.27;7.13;;;;;;;26.09;51.36;100508.09;5009559;28;20124;-81
2022/05/23 07:15:35;;;;;;;11.27;8.32;;;;;;;26.07;51.56;100494.75;4991615;28;20129;-82
2022/05/23 07:18:03;;;;;;;11.15;8.43;;;;;;;26.18;51.72;100509.38;5008587;28;20053;-83
2022/05/23 07:20:30;;;;;;;11.43;7.65;;;;;;;26.25;50.92;100510.06;4990637;28;20050;-82
2022/05/23 07:22:57;;;;;;;12.75;6.97;;;;;;;25.41;51.34;100373.72;4989987;28;20460;-82
2022/05/23 07:25:23;;;;;;;9.50;7.20;;;;;;;25.51;51.00;100382.09;4990593;28;20049;-83
2022/05/23 07:27:50;;;;;;;13.93;7.35;;;;;;;26.12;50.43;100470.38;4990864;28;20080;-82
2022/05/23 07:30:19;;;;;;;18.30;8.00;;;;;;;25.73;49.71;100393.13;5008488;28;20056;-81
2022/05/23 07:32:46;;;;;;;11.10;7.53;;;;;;;26.41;49.75;100470.34;4991590;28;20091;-83
2022/05/23 07:35:13;;;;;;;13.35;8.00;;;;;;;26.43;49.67;100473.63;5007685;28;20066;-82
2022/05/23 07:37:39;;;;;;;17.17;7.93;;;;;;;26.54;49.66;100480.13;5008181;28;20510;-82
2022/05/23 07:40:07;;;;;;;12.48;6.95;;;;;;;26.23;49.91;100434.09;4990996;28;20046;-82
2022/05/23 07:42:37;;;;;;;12.23;6.90;;;;;;;26.67;49.26;100485.25;5009006;28;20128;-82
2022/05/23 07:45:06;;;;;;;14.23;7.43;;;;;;;26.83;49.35;100500.78;5008305;28;20335;-83
2022/05/23 07:47:33;;;;;;;9.45;6.53;;;;;;;26.58;49.82;100481.28;5007863;28;20065;-83
2022/05/23 07:49:59;;;;;;;8.68;7.20;;;;;;;26.78;49.79;100508.06;5007079;28;20054;-80
2022/05/23 07:52:26;;;;;;;11.70;7.13;;;;;;;26.43;49.86;100446.41;4988529;28;20045;-82
2022/05/23 08:00:31;;;;;;;15.13;7.18;;;;;;;26.67;48.80;100440.88;5005501;28;20093;-83
2022/05/23 08:03:05;;;;;;;10.38;7.35;;;;;;;26.62;48.75;100407.03;4988623;28;20141;-83
2022/05/23 08:05:32;;;;;;;10.32;7.10;;;;;;;26.51;48.43;100383.44;4989440;28;20492;-80
2022/05/23 08:07:59;;;;;;;8.52;6.18;;;;;;;26.70;48.84;100424.03;4990638;28;20574;-81
2022/05/23 08:10:26;;;;;;;9.60;7.00;;;;;;;27.20;48.86;100510.41;4991350;28;20060;-81
2022/05/23 08:12:55;;;;;;;12.00;7.30;;;;;;;27.24;48.62;100503.38;4991306;28;20576;-82
2022/05/23 08:15:25;;;;;;;13.00;7.05;;;;;;;27.22;49.35;100500.09;5011374;28;20288;-81
2022/05/23 08:17:52;;;;;;;8.90;6.72;;;;;;;27.37;48.86;100505.75;4992387;28;20057;-83
2022/05/23 08:20:24;;;;;;;13.15;7.18;;;;;;;27.25;48.56;100464.16;4994515;28;20050;-82
2022/05/23 08:22:54;;;;;;;8.88;6.53;;;;;;;27.44;47.84;100473.69;5024604;28;20034;-83
2022/05/23 08:25:21;;;;;;;8.65;6.75;;;;;;;26.79;47.74;100373.53;5014513;28;20045;-83
2022/05/23 08:27:48;;;;;;;9.75;7.07;;;;;;;27.62;48.18;100496.28;5019104;28;20432;-83
2022/05/23 08:30:16;;;;;;;11.75;7.18;;;;;;;27.63;47.88;100481.59;4991396;28;20073;-82
2022/05/23 08:32:43;;;;;;;9.73;6.70;;;;;;;27.47;48.07;100467.72;4990345;28;20488;-82
2022/05/23 08:35:10;;;;;;;8.40;6.45;;;;;;;27.79;48.02;100496.22;4990642;28;20042;-83
2022/05/23 08:37:36;;;;;;;9.07;7.20;;;;;;;27.29;47.75;100408.06;5008149;28;20053;-81
2022/05/23 08:40:05;;;;;;;10.63;6.65;;;;;;;27.74;47.51;100461.53;4990587;28;20255;-81
2022/05/23 08:42:56;;;;;;;10.15;7.43;;;;;;;28.01;47.03;100498.97;4990260;28;20080;-82
2022/05/23 08:45:35;;;;;;;10.55;7.47;;;;;;;28.02;47.25;100478.81;4988474;28;20069;-82
2022/05/23 08:48:18;;;;;;;13.88;7.70;;;;;;;27.36;47.26;100367.84;4988121;28;20069;-82
2022/05/23 08:51:06;;;;;;;9.68;7.03;;;;;;;28.22;46.92;100497.31;4971618;28;20050;-83
2022/05/23 08:53:43;;;;;;;9.77;7.70;;;;;;;28.06;47.14;100463.56;4986009;28;20061;-84
2022/05/23 08:56:22;;;;;;;12.80;7.10;;;;;;;27.97;46.78;100460.47;5007595;28;20065;-83
2022/05/23 08:58:53;;;;;;;9.57;6.70;;;;;;;27.64;46.87;100379.59;4989506;28;20068;-84
2022/05/23 09:01:27;;;;;;;13.83;7.10;;;;;;;27.84;46.88;100404.44;5007054;28;20049;-83
2022/05/23 09:04:13;;;;;;;11.80;6.75;;;;;;;28.41;46.76;100482.25;4989594;28;20312;-84
2022/05/23 09:06:50;;;;;;;13.20;7.35;;;;;;;27.07;46.43;100242.66;4989607;28;20054;-84
2022/05/23 09:09:22;;;;;;;8.52;7.20;;;;;;;28.47;46.25;100472.22;4979617;28;20442;-84
2022/05/23 09:11:54;;;;;;;15.82;7.80;;;;;;;28.08;46.01;100390.47;5004838;28;20186;-83
2022/05/23 09:14:21;;;;;;;8.38;6.68;;;;;;;27.97;45.59;100372.38;4988252;28;20355;-84
2022/05/23 09:16:51;;;;;;;11.57;6.20;;;;;;;28.02;46.00;100367.78;5006013;28;20053;-83
2022/05/23 09:19:25;;;;;;;9.32;6.50;;;;;;;27.88;45.36;100336.53;4988578;28;20085;-84
2022/05/23 09:22:19;;;;;;;9.23;6.85;;;;;;;28.53;45.55;100446.63;4988739;28;20046;-84
2022/05/23 09:24:56;;;;;;;8.45;7.65;;;;;;;27.66;45.48;100306.56;4987591;28;20309;-84
2022/05/23 09:27:40;;;;;;;11.90;7.50;;;;;;;28.37;45.34;100412.84;4988220;28;20049;-83
2022/05/23 09:30:22;;;;;;;12.73;7.43;;;;;;;28.96;44.47;100477.56;4986892;28;20057;-83
2022/05/23 09:33:09;;;;;;;11.38;7.30;;;;;;;28.66;45.42;100446.16;5005904;28;20046;-84
2022/05/23 09:35:42;;;;;;;12.15;6.72;;;;;;;29.00;44.90;100469.66;4988236;28;20053;-83
2022/05/23 09:38:16;;;;;;;12.48;7.45;;;;;;;28.77;44.50;100420.59;4988123;28;20088;-84
2022/05/23 09:40:44;;;;;;;9.52;6.93;;;;;;;29.19;44.00;100454.50;4986998;28;20053;-84
2022/05/23 09:49:13;;;;;;;8.98;6.95;;;;;;;29.35;44.21;100447.25;5005497;28;20061;-85
2022/05/23 09:51:57;;;;;;;18.23;7.57;;;;;;;29.48;44.52;100445.94;4987671;28;20092;-82
2022/05/23 09:54:47;;;;;;;12.45;7.20;;;;;;;29.41;44.19;100429.75;4968352;28;20066;-83
2022/05/23 09:57:28;;;;;;;8.48;6.70;;;;;;;29.66;44.10;100447.38;4967801;28;20058;-84
2022/05/23 09:59:58;;;;;;;9.77;7.07;;;;;;;29.69;43.44;100425.00;4969215;28;20058;-84
2022/05/23 10:02:35;;;;;;;9.82;7.45;;;;;;;29.90;44.14;100440.38;4966781;28;20073;-83
2022/05/23 10:05:05;;;;;;;9.07;7.57;;;;;;;29.73;43.17;100393.28;4969020;28;20108;-83
2022/05/23 10:07:37;;;;;;;9.23;7.07;;;;;;;29.94;42.86;100416.88;4969834;28;20161;-84
2022/05/23 10:10:26;;;;;;;10.40;7.40;;;;;;;29.95;42.71;100415.75;4990731;28;20050;-84
2022/05/23 10:13:20;;;;;;;12.00;8.07;;;;;;;29.92;42.24;100386.22;4994920;28;20057;-84
2022/05/23 10:15:52;;;;;;;11.13;8.00;;;;;;;30.20;42.44;100397.75;4988556;28;20108;-86
2022/05/23 10:18:43;;;;;;;9.95;7.43;;;;;;;30.49;41.51;100416.41;4987989;28;20351;-84
2022/05/23 10:21:41;;;;;;;13.85;8.48;;;;;;;30.70;42.33;100423.53;4987655;28;20579;-84
2022/05/23 10:24:14;;;;;;;10.77;7.93;;;;;;;30.88;42.10;100420.28;4972636;28;20488;-83
2022/05/23 10:27:00;;;;;;;10.77;8.27;;;;;;;30.66;41.55;100363.00;5005217;28;20074;-83
2022/05/23 10:29:53;;;;;;;15.20;7.95;;;;;;;31.12;40.94;100419.69;4987795;28;20065;-84
2022/05/23 10:32:36;;;;;;;16.15;7.78;;;;;;;31.35;41.43;100417.41;5005061;28;20096;-84
2022/05/23 10:35:21;;;;;;;10.85;7.78;;;;;;;31.02;40.38;100332.81;5005312;28;20046;-84
2022/05/23 10:37:51;;;;;;;13.88;7.53;;;;;;;31.23;40.37;100365.63;4988230;28;20644;-83
2022/05/23 10:43:20;;;;;;;16.58;9.75;;;;;;;31.97;39.13;100401.53;5007033;28;20049;-86
2022/05/23 10:45:51;;;;;;;14.75;8.45;;;;;;;32.23;38.87;100400.25;4992285;28;20046;-84
2022/05/23 10:48:36;;;;;;;12.77;8.52;;;;;;;32.36;39.29;100398.81;5008298;28;20050;-86
2022/05/23 10:51:30;;;;;;;11.07;9.18;;;;;;;31.72;38.65;100266.91;5008361;28;20057;-84
2022/05/23 10:54:03;;;;;;;12.77;9.00;;;;;;;32.31;38.59;100352.97;4991745;28;20050;-85
2022/05/23 10:56:40;;;;;;;11.35;8.52;;;;;;;32.54;38.50;100394.56;4993991;28;20081;-85
2022/05/23 10:59:35;;;;;;;8.98;8.07;;;;;;;32.46;37.91;100364.94;5009443;28;20045;-83
2022/05/23 11:02:19;;;;;;;9.60;7.75;;;;;;;32.73;37.34;100395.47;4988828;28;20108;-84
2022/05/23 11:04:52;;;;;;;11.20;8.82;;;;;;;32.81;37.11;100394.03;4990362;28;20057;-84
2022/05/23 11:07:43;;;;;;;10.25;8.43;;;;;;;33.06;36.83;100378.38;4988546;28;20053;-84
2022/05/23 11:11:00;;;;;;;10.40;8.38;;;;;;;32.94;37.44;100382.34;4990538;28;20046;-85
2022/05/23 11:13:45;;;;;;;14.82;8.63;;;;;;;33.28;36.58;100388.88;5006527;28;20100;-84
2022/05/23 11:16:22;;;;;;;9.75;8.82;;;;;;;33.26;36.59;100378.16;4990622;28;20045;-85
2022/05/23 11:19:07;;;;;;;11.38;8.27;;;;;;;33.09;36.76;100328.34;4990119;28;20053;-84
2022/05/23 11:21:53;;;;;;;11.38;8.13;;;;;;;33.48;36.54;100374.06;4988717;28;20054;-84
2022/05/23 11:24:24;;;;;;;11.50;8.75;;;;;;;32.86;36.31;100285.94;5007055;28;20444;-84
2022/05/23 11:33:41;;;;;;;11.07;8.93;;;;;;;33.34;36.58;100333.50;4990565;28;20213;-84
2022/05/23 11:35:42;;;;;;;13.85;7.65;;;;;;;34.03;35.71;100352.34;5007072;28;20595;-84
2022/05/23 11:38:11;;;;;;;9.82;7.28;;;;;;;34.09;34.90;100311.81;4990119;28;20569;-84
2022/05/23 11:41:04;;;;;;;10.13;7.38;;;;;;;34.30;33.33;100309.53;5008329;28;20065;-84
2022/05/23 11:43:31;;;;;;;11.52;7.13;;;;;;;34.65;33.84;100350.25;5008037;28;20049;-85
2022/05/23 11:46:04;;;;;;;16.58;7.95;;;;;;;34.44;33.35;100288.31;4991093;28;20052;-85
2022/05/23 11:48:36;;;;;;;8.15;7.13;;;;;;;34.94;32.99;100348.34;4990392;28;20057;-84
2022/05/23 11:51:12;;;;;;;11.50;7.30;;;;;;;35.00;33.06;100345.16;4990259;28;20428;-84
2022/05/23 11:53:51;;;;;;;14.82;7.75;;;;;;;35.02;32.81;100323.63;4989569;28;20348;-84
2022/05/23 11:56:59;;;;;;;17.35;7.30;;;;;;;35.00;32.62;100311.25;4970897;28;20054;-84
2022/05/23 11:59:29;;;;;;;;;;;;;;;35.24;32.98;100336.69;4971955;28;20065;-82
2022/05/23 12:02:09;;;;;;;11.05;7.97;;;;;;;35.32;33.56;100321.38;4988029;28;19921;-84
2022/05/23 12:04:48;;;;;;;11.77;8.03;;;;;;;35.41;33.80;100333.31;4971086;28;20050;-83
2022/05/23 12:07:31;;;;;;;10.80;6.95;;;;;;;35.67;33.03;100332.78;4971287;28;20146;-82
2022/05/23 12:10:25;;;;;;;8.85;6.05;;;;;;;35.83;31.14;100331.31;4971211;28;20058;-82
2022/05/23 12:12:56;;;;;;;11.55;7.57;;;;;;;35.76;33.15;100303.31;4958523;28;20117;-82
2022/05/23 12:15:41;;;;;;;11.32;7.43;;;;;;;36.11;30.91;100328.44;4988399;28;20516;-83
2022/05/23 12:18:13;;;;;;;10.85;7.75;;;;;;;35.58;32.67;100224.19;4971098;28;20477;-81
2022/05/23 12:20:45;;;;;;;12.35;7.93;;;;;;;36.08;33.23;100282.06;4987927;28;20102;-83
2022/05/23 12:23:44;;;;;;;10.07;7.90;;;;;;;36.52;32.19;100314.38;4988979;28;20070;-82
2022/05/23 12:26:10;;;;;;;11.48;8.43;;;;;;;36.41;32.69;100318.53;4975691;28;20057;-83
2022/05/23 12:28:47;;;;;;;12.48;8.85;;;;;;;36.58;31.94;100318.69;4972302;28;20125;-83
2022/05/23 12:31:16;;;;;;;9.63;7.68;;;;;;;35.98;32.52;100210.53;4987621;28;20488;-83
2022/05/23 12:33:50;;;;;;;11.00;7.53;;;;;;;35.77;31.71;100155.81;4988259;28;20532;-83